sensor_id;sensor_type;location;lat;lon;timestamp;pressure;altitude;pressure_sealevel;temperature;humidity
42591;BME280;28218;53.342;-6.216;2023-04-08T00:00:56;102143.69;;;9.62;100.00
42591;BME280;28218;53.342;-6.216;2023-04-08T00:03:26;102141.19;;;9.61;100.00
42591;BME280;28218;53.342;-6.216;2023-04-08T00:05:54;102142.41;;;9.57;100.00
42591;BME280;28218;53.342;-6.216;2023-04-08T00:08:22;102141.56;;;9.56;100.00
42591;BME280;28218;53.342;-6.216;2023-04-08T00:10:50;102141.69;;;9.55;100.00
42591;BME280;28218;53.342;-6.216;2023-04-08T00:13:19;102140.03;;;9.54;100.00
42591;BME280;28218;53.342;-6.216;2023-04-08T00:15:47;102146.25;;;9.53;100.00
42591;BME280;28218;53.342;-6.216;2023-04-08T00:18:15;102137.66;;;9.51;100.00
42591;BME280;28218;53.342;-6.216;2023-04-08T00:20:45;102136.25;;;9.46;100.00
42591;BME280;28218;53.342;-6.216;2023-04-08T00:23:13;102129.28;;;9.45;100.00
42591;BME280;28218;53.342;-6.216;2023-04-08T00:25:42;102132.88;;;9.44;100.00
42591;BME280;28218;53.342;-6.216;2023-04-08T00:28:11;102136.25;;;9.46;100.00
42591;BME280;28218;53.342;-6.216;2023-04-08T00:30:39;102133.63;;;9.46;100.00
42591;BME280;28218;53.342;-6.216;2023-04-08T00:33:07;102130.97;;;9.46;100.00
42591;BME280;28218;53.342;-6.216;2023-04-08T00:35:36;102128.44;;;9.45;100.00
42591;BME280;28218;53.342;-6.216;2023-04-08T00:38:05;102118.75;;;9.45;100.00
42591;BME280;28218;53.342;-6.216;2023-04-08T00:40:34;102130.84;;;9.48;100.00
42591;BME280;28218;53.342;-6.216;2023-04-08T00:43:03;102135.03;;;9.51;100.00
42591;BME280;28218;53.342;-6.216;2023-04-08T00:45:32;102127.13;;;9.51;100.00
42591;BME280;28218;53.342;-6.216;2023-04-08T00:48:00;102137.66;;;9.51;100.00
42591;BME280;28218;53.342;-6.216;2023-04-08T00:50:29;102131.44;;;9.52;100.00
42591;BME280;28218;53.342;-6.216;2023-04-08T00:52:58;102126.03;;;9.53;100.00
42591;BME280;28218;53.342;-6.216;2023-04-08T00:55:27;102132.13;;;9.54;100.00
42591;BME280;28218;53.342;-6.216;2023-04-08T00:57:56;102134.75;;;9.54;100.00
42591;BME280;28218;53.342;-6.216;2023-04-08T01:00:24;102126.63;;;9.57;100.00
42591;BME280;28218;53.342;-6.216;2023-04-08T01:02:58;102126.63;;;9.57;100.00
42591;BME280;28218;53.342;-6.216;2023-04-08T01:05:38;102122.19;;;9.57;100.00
42591;BME280;28218;53.342;-6.216;2023-04-08T01:08:08;102118.00;;;9.55;100.00
42591;BME280;28218;53.342;-6.216;2023-04-08T01:10:40;102117.16;;;9.54;100.00
42591;BME280;28218;53.342;-6.216;2023-04-08T01:13:13;102106.66;;;9.54;100.00
42591;BME280;28218;53.342;-6.216;2023-04-08T01:15:45;102105.81;;;9.54;100.00
42591;BME280;28218;53.342;-6.216;2023-04-08T01:18:14;102113.84;;;9.52;100.00
42591;BME280;28218;53.342;-6.216;2023-04-08T01:20:44;102110.09;;;9.55;100.00
42591;BME280;28218;53.342;-6.216;2023-04-08T01:23:28;102114.53;;;9.54;100.00
42591;BME280;28218;53.342;-6.216;2023-04-08T01:25:59;102121.50;;;9.55;100.00
42591;BME280;28218;53.342;-6.216;2023-04-08T01:28:29;102116.78;;;9.59;100.00
42591;BME280;28218;53.342;-6.216;2023-04-08T01:30:59;102114.16;;;9.59;100.00
42591;BME280;28218;53.342;-6.216;2023-04-08T01:33:30;102116.69;;;9.60;100.00
42591;BME280;28218;53.342;-6.216;2023-04-08T01:35:59;102113.91;;;9.62;100.00
42591;BME280;28218;53.342;-6.216;2023-04-08T01:38:29;102112.25;;;9.61;100.00
42591;BME280;28218;53.342;-6.216;2023-04-08T01:41:00;102115.56;;;9.63;100.00
42591;BME280;28218;53.342;-6.216;2023-04-08T01:43:28;102113.22;;;9.60;100.00
42591;BME280;28218;53.342;-6.216;2023-04-08T01:45:58;102108.66;;;9.62;100.00
42591;BME280;28218;53.342;-6.216;2023-04-08T01:48:27;102111.88;;;9.65;100.00
42591;BME280;28218;53.342;-6.216;2023-04-08T01:50:56;102111.72;;;9.67;100.00
42591;BME280;28218;53.342;-6.216;2023-04-08T01:53:25;102114.81;;;9.72;100.00
42591;BME280;28218;53.342;-6.216;2023-04-08T01:55:57;102114.56;;;9.75;100.00
42591;BME280;28218;53.342;-6.216;2023-04-08T01:58:31;102106.53;;;9.77;100.00
42591;BME280;28218;53.342;-6.216;2023-04-08T02:01:04;102103.06;;;9.76;100.00
42591;BME280;28218;53.342;-6.216;2023-04-08T02:03:34;102105.84;;;9.75;100.00
42591;BME280;28218;53.342;-6.216;2023-04-08T02:06:03;102100.56;;;9.75;100.00
42591;BME280;28218;53.342;-6.216;2023-04-08T02:08:33;102105.13;;;9.72;100.00
42591;BME280;28218;53.342;-6.216;2023-04-08T02:11:02;102107.88;;;9.71;100.00
42591;BME280;28218;53.342;-6.216;2023-04-08T02:13:32;102100.22;;;9.68;100.00
42591;BME280;28218;53.342;-6.216;2023-04-08T02:16:03;102092.03;;;9.61;100.00
42591;BME280;28218;53.342;-6.216;2023-04-08T02:18:34;102102.34;;;9.53;100.00
42591;BME280;28218;53.342;-6.216;2023-04-08T02:21:08;102094.16;;;9.46;100.00
42591;BME280;28218;53.342;-6.216;2023-04-08T02:23:39;102092.84;;;9.41;100.00
42591;BME280;28218;53.342;-6.216;2023-04-08T02:26:12;102095.16;;;9.34;100.00
42591;BME280;28218;53.342;-6.216;2023-04-08T02:28:42;102091.81;;;9.32;100.00
42591;BME280;28218;53.342;-6.216;2023-04-08T02:31:12;102097.09;;;9.32;100.00
42591;BME280;28218;53.342;-6.216;2023-04-08T02:33:41;102092.66;;;9.33;100.00
42591;BME280;28218;53.342;-6.216;2023-04-08T02:36:11;102093.94;;;9.38;100.00
42591;BME280;28218;53.342;-6.216;2023-04-08T02:38:39;102092.97;;;9.39;100.00
42591;BME280;28218;53.342;-6.216;2023-04-08T02:41:07;102094.38;;;9.43;100.00
42591;BME280;28218;53.342;-6.216;2023-04-08T02:43:36;102092.44;;;9.45;100.00
42591;BME280;28218;53.342;-6.216;2023-04-08T02:46:05;102099.41;;;9.46;100.00
42591;BME280;28218;53.342;-6.216;2023-04-08T02:48:34;102099.97;;;9.50;100.00
42591;BME280;28218;53.342;-6.216;2023-04-08T02:51:02;102096.41;;;9.51;100.00
42591;BME280;28218;53.342;-6.216;2023-04-08T02:53:31;102093.75;;;9.51;100.00
42591;BME280;28218;53.342;-6.216;2023-04-08T02:55:59;102092.94;;;9.51;100.00
42591;BME280;28218;53.342;-6.216;2023-04-08T02:58:27;102094.69;;;9.50;100.00
42591;BME280;28218;53.342;-6.216;2023-04-08T03:00:55;102089.34;;;9.52;100.00
42591;BME280;28218;53.342;-6.216;2023-04-08T03:03:25;102091.13;;;9.51;100.00
42591;BME280;28218;53.342;-6.216;2023-04-08T03:05:56;102094.59;;;9.52;100.00
42591;BME280;28218;53.342;-6.216;2023-04-08T03:08:24;102091.97;;;9.52;100.00
42591;BME280;28218;53.342;-6.216;2023-04-08T03:10:53;102096.25;;;9.53;100.00
42591;BME280;28218;53.342;-6.216;2023-04-08T03:13:21;102091.69;;;9.55;100.00
42591;BME280;28218;53.342;-6.216;2023-04-08T03:15:49;102091.69;;;9.55;100.00
42591;BME280;28218;53.342;-6.216;2023-04-08T03:18:17;102091.69;;;9.55;100.00
42591;BME280;28218;53.342;-6.216;2023-04-08T03:20:47;102097.09;;;9.53;100.00
42591;BME280;28218;53.342;-6.216;2023-04-08T03:23:15;102089.19;;;9.53;100.00
42591;BME280;28218;53.342;-6.216;2023-04-08T03:25:43;102090.31;;;9.51;100.00
42591;BME280;28218;53.342;-6.216;2023-04-08T03:28:12;102080.84;;;9.48;100.00
42591;BME280;28218;53.342;-6.216;2023-04-08T03:30:41;102077.38;;;9.47;100.00
42591;BME280;28218;53.342;-6.216;2023-04-08T03:33:09;102083.63;;;9.46;100.00
42591;BME280;28218;53.342;-6.216;2023-04-08T03:35:37;102077.03;;;9.41;100.00
42591;BME280;28218;53.342;-6.216;2023-04-08T03:38:07;102077.78;;;9.43;100.00
42591;BME280;28218;53.342;-6.216;2023-04-08T03:40:35;102077.31;;;9.38;100.00
42591;BME280;28218;53.342;-6.216;2023-04-08T03:43:03;102071.84;;;9.30;100.00
42591;BME280;28218;53.342;-6.216;2023-04-08T03:45:32;102074.03;;;9.25;100.00
42591;BME280;28218;53.342;-6.216;2023-04-08T03:48:00;102071.19;;;9.16;100.00
42591;BME280;28218;53.342;-6.216;2023-04-08T03:50:29;102070.63;;;9.13;100.00
42591;BME280;28218;53.342;-6.216;2023-04-08T03:52:57;102076.97;;;9.10;100.00
42591;BME280;28218;53.342;-6.216;2023-04-08T03:55:26;102070.13;;;9.08;100.00
42591;BME280;28218;53.342;-6.216;2023-04-08T03:57:55;102072.41;;;9.12;100.00
42591;BME280;28218;53.342;-6.216;2023-04-08T04:00:23;102064.63;;;9.11;100.00
42591;BME280;28218;53.342;-6.216;2023-04-08T04:02:51;102067.41;;;9.09;100.00
42591;BME280;28218;53.342;-6.216;2023-04-08T04:05:21;102070.03;;;9.09;100.00
42591;BME280;28218;53.342;-6.216;2023-04-08T04:07:49;102070.72;;;9.11;100.00
42591;BME280;28218;53.342;-6.216;2023-04-08T04:10:17;102072.03;;;9.17;100.00
42591;BME280;28218;53.342;-6.216;2023-04-08T04:12:48;102073.00;;;9.16;100.00
42591;BME280;28218;53.342;-6.216;2023-04-08T04:15:17;102076.44;;;9.16;100.00
42591;BME280;28218;53.342;-6.216;2023-04-08T04:17:47;102076.44;;;9.16;100.00
42591;BME280;28218;53.342;-6.216;2023-04-08T04:20:16;102080.03;;;9.15;100.00
42591;BME280;28218;53.342;-6.216;2023-04-08T04:22:44;102084.59;;;9.13;100.00
42591;BME280;28218;53.342;-6.216;2023-04-08T04:25:12;102085.16;;;9.17;100.00
42591;BME280;28218;53.342;-6.216;2023-04-08T04:27:41;102084.22;;;9.18;100.00
42591;BME280;28218;53.342;-6.216;2023-04-08T04:30:11;102089.22;;;9.21;100.00
42591;BME280;28218;53.342;-6.216;2023-04-08T04:32:41;102091.59;;;9.24;100.00
42591;BME280;28218;53.342;-6.216;2023-04-08T04:35:10;102095.91;;;9.25;100.00
42591;BME280;28218;53.342;-6.216;2023-04-08T04:37:38;102082.88;;;9.24;100.00
42591;BME280;28218;53.342;-6.216;2023-04-08T04:40:07;102083.84;;;9.23;100.00
42591;BME280;28218;53.342;-6.216;2023-04-08T04:42:35;102086.59;;;9.21;100.00
42591;BME280;28218;53.342;-6.216;2023-04-08T04:45:04;102082.44;;;9.18;100.00
42591;BME280;28218;53.342;-6.216;2023-04-08T04:47:34;102080.63;;;9.19;100.00
42591;BME280;28218;53.342;-6.216;2023-04-08T04:50:02;102075.63;;;9.16;100.00
42591;BME280;28218;53.342;-6.216;2023-04-08T04:52:31;102076.59;;;9.15;100.00
42591;BME280;28218;53.342;-6.216;2023-04-08T04:54:59;102081.16;;;9.13;100.00
42591;BME280;28218;53.342;-6.216;2023-04-08T04:57:27;102084.00;;;9.10;100.00
42591;BME280;28218;53.342;-6.216;2023-04-08T04:59:56;102083.41;;;9.06;100.00
42591;BME280;28218;53.342;-6.216;2023-04-08T05:02:24;102085.47;;;9.03;100.00
42591;BME280;28218;53.342;-6.216;2023-04-08T05:04:54;102083.78;;;9.02;100.00
42591;BME280;28218;53.342;-6.216;2023-04-08T05:07:22;102079.63;;;8.99;100.00
42591;BME280;28218;53.342;-6.216;2023-04-08T05:09:51;102080.56;;;8.98;100.00
42591;BME280;28218;53.342;-6.216;2023-04-08T05:12:19;102086.78;;;8.97;100.00
42591;BME280;28218;53.342;-6.216;2023-04-08T05:14:47;102089.69;;;8.94;100.00
42591;BME280;28218;53.342;-6.216;2023-04-08T05:17:15;102083.56;;;8.93;100.00
42591;BME280;28218;53.342;-6.216;2023-04-08T05:19:43;102088.72;;;8.95;100.00
42591;BME280;28218;53.342;-6.216;2023-04-08T05:22:13;102090.53;;;8.94;100.00
42591;BME280;28218;53.342;-6.216;2023-04-08T05:24:41;102081.91;;;8.92;100.00
42591;BME280;28218;53.342;-6.216;2023-04-08T05:27:10;102080.13;;;8.93;100.00
42591;BME280;28218;53.342;-6.216;2023-04-08T05:29:38;102080.94;;;8.93;100.00
42591;BME280;28218;53.342;-6.216;2023-04-08T05:32:07;102084.53;;;8.92;100.00
42591;BME280;28218;53.342;-6.216;2023-04-08T05:34:35;102091.47;;;8.93;100.00
42591;BME280;28218;53.342;-6.216;2023-04-08T05:37:03;102088.97;;;8.92;100.00
42591;BME280;28218;53.342;-6.216;2023-04-08T05:39:33;102096.16;;;8.90;100.00
42591;BME280;28218;53.342;-6.216;2023-04-08T05:42:02;102086.47;;;8.90;100.00
42591;BME280;28218;53.342;-6.216;2023-04-08T05:44:30;102089.47;;;8.86;100.00
42591;BME280;28218;53.342;-6.216;2023-04-08T05:46:59;102091.38;;;8.84;100.00
42591;BME280;28218;53.342;-6.216;2023-04-08T05:49:27;102095.78;;;8.83;100.00
42591;BME280;28218;53.342;-6.216;2023-04-08T05:51:55;102100.09;;;8.84;100.00
42591;BME280;28218;53.342;-6.216;2023-04-08T05:54:23;102090.44;;;8.85;100.00
42591;BME280;28218;53.342;-6.216;2023-04-08T05:56:53;102102.72;;;8.84;100.00
42591;BME280;28218;53.342;-6.216;2023-04-08T05:59:21;102100.81;;;8.86;100.00
42591;BME280;28218;53.342;-6.216;2023-04-08T06:01:49;102106.41;;;8.93;100.00
42591;BME280;28218;53.342;-6.216;2023-04-08T06:04:18;102101.16;;;8.93;100.00
42591;BME280;28218;53.342;-6.216;2023-04-08T06:06:46;102104.38;;;8.96;100.00
42591;BME280;28218;53.342;-6.216;2023-04-08T06:09:14;102104.97;;;9.00;100.00
42591;BME280;28218;53.342;-6.216;2023-04-08T06:11:42;102108.06;;;9.05;100.00
42591;BME280;28218;53.342;-6.216;2023-04-08T06:14:14;102103.25;;;9.10;100.00
42591;BME280;28218;53.342;-6.216;2023-04-08T06:16:42;102114.38;;;9.14;100.00
42591;BME280;28218;53.342;-6.216;2023-04-08T06:19:10;102118.28;;;9.19;100.00
42591;BME280;28218;53.342;-6.216;2023-04-08T06:21:39;102115.53;;;9.21;100.00
42591;BME280;28218;53.342;-6.216;2023-04-08T06:24:07;102109.78;;;9.27;100.00
42591;BME280;28218;53.342;-6.216;2023-04-08T06:26:35;102103.41;;;9.30;100.00
42591;BME280;28218;53.342;-6.216;2023-04-08T06:29:03;102109.50;;;9.30;100.00
42591;BME280;28218;53.342;-6.216;2023-04-08T06:31:33;102110.69;;;9.37;100.00
42591;BME280;28218;53.342;-6.216;2023-04-08T06:34:01;102109.03;;;9.36;100.00
42591;BME280;28218;53.342;-6.216;2023-04-08T06:36:29;102123.09;;;9.46;100.00
42591;BME280;28218;53.342;-6.216;2023-04-08T06:38:57;102123.25;;;9.55;100.00
42591;BME280;28218;53.342;-6.216;2023-04-08T06:41:26;102121.59;;;9.54;100.00
42591;BME280;28218;53.342;-6.216;2023-04-08T06:43:54;102115.84;;;9.60;100.00
42591;BME280;28218;53.342;-6.216;2023-04-08T06:46:22;102126.25;;;9.61;100.00
42591;BME280;28218;53.342;-6.216;2023-04-08T06:48:52;102122.25;;;9.67;100.00
42591;BME280;28218;53.342;-6.216;2023-04-08T06:51:21;102129.91;;;9.70;100.00
42591;BME280;28218;53.342;-6.216;2023-04-08T06:53:49;102127.97;;;9.72;100.00
42591;BME280;28218;53.342;-6.216;2023-04-08T06:56:17;102129.53;;;9.75;100.00
42591;BME280;28218;53.342;-6.216;2023-04-08T06:58:47;102133.97;;;9.74;100.00
42591;BME280;28218;53.342;-6.216;2023-04-08T07:01:15;102136.44;;;9.76;100.00
42591;BME280;28218;53.342;-6.216;2023-04-08T07:03:43;102139.78;;;9.78;100.00
42591;BME280;28218;53.342;-6.216;2023-04-08T07:06:13;102137.72;;;9.81;100.00
42591;BME280;28218;53.342;-6.216;2023-04-08T07:08:41;102137.72;;;9.81;100.00
42591;BME280;28218;53.342;-6.216;2023-04-08T07:11:09;102136.50;;;9.85;100.00
42591;BME280;28218;53.342;-6.216;2023-04-08T07:13:38;102139.16;;;9.85;100.00
42591;BME280;28218;53.342;-6.216;2023-04-08T07:16:06;102146.53;;;9.91;100.00
42591;BME280;28218;53.342;-6.216;2023-04-08T07:18:34;102142.66;;;9.95;100.00
42591;BME280;28218;53.342;-6.216;2023-04-08T07:21:02;102148.78;;;9.96;100.00
42591;BME280;28218;53.342;-6.216;2023-04-08T07:23:32;102148.66;;;9.97;100.00
42591;BME280;28218;53.342;-6.216;2023-04-08T07:26:01;102151.59;;;10.04;100.00
42591;BME280;28218;53.342;-6.216;2023-04-08T07:28:30;102154.81;;;10.08;100.00
42591;BME280;28218;53.342;-6.216;2023-04-08T07:31:08;102146.63;;;10.11;100.00
42591;BME280;28218;53.342;-6.216;2023-04-08T07:33:37;102145.41;;;10.15;100.00
42591;BME280;28218;53.342;-6.216;2023-04-08T07:36:05;102146.38;;;10.14;100.00
42591;BME280;28218;53.342;-6.216;2023-04-08T07:38:34;102154.16;;;10.15;100.00
42591;BME280;28218;53.342;-6.216;2023-04-08T07:41:03;102157.75;;;10.14;100.00
42591;BME280;28218;53.342;-6.216;2023-04-08T07:43:32;102151.41;;;10.17;100.00
42591;BME280;28218;53.342;-6.216;2023-04-08T07:46:02;102151.00;;;10.21;100.00
42591;BME280;28218;53.342;-6.216;2023-04-08T07:48:31;102152.03;;;10.30;100.00
42591;BME280;28218;53.342;-6.216;2023-04-08T07:51:02;102150.13;;;10.32;100.00
42591;BME280;28218;53.342;-6.216;2023-04-08T07:53:38;102160.94;;;10.39;100.00
42591;BME280;28218;53.342;-6.216;2023-04-08T07:56:10;102159.34;;;10.47;100.00
42591;BME280;28218;53.342;-6.216;2023-04-08T07:58:39;102165.03;;;10.53;100.00
42591;BME280;28218;53.342;-6.216;2023-04-08T08:01:14;102165.03;;;10.53;100.00
42591;BME280;28218;53.342;-6.216;2023-04-08T08:03:43;102163.38;;;10.52;100.00
42591;BME280;28218;53.342;-6.216;2023-04-08T08:06:14;102173.38;;;10.58;100.00
42591;BME280;28218;53.342;-6.216;2023-04-08T08:08:43;102170.50;;;10.61;100.00
42591;BME280;28218;53.342;-6.216;2023-04-08T08:11:12;102173.00;;;10.72;100.00
42591;BME280;28218;53.342;-6.216;2023-04-08T08:13:40;102173.06;;;10.91;100.00
42591;BME280;28218;53.342;-6.216;2023-04-08T08:16:09;102180.19;;;11.00;100.00
42591;BME280;28218;53.342;-6.216;2023-04-08T08:18:38;102168.69;;;11.02;100.00
42591;BME280;28218;53.342;-6.216;2023-04-08T08:21:07;102173.84;;;11.13;100.00
42591;BME280;28218;53.342;-6.216;2023-04-08T08:23:36;102171.63;;;11.27;100.00
42591;BME280;28218;53.342;-6.216;2023-04-08T08:26:07;102178.44;;;11.40;100.00
42591;BME280;28218;53.342;-6.216;2023-04-08T08:28:37;102177.31;;;11.52;100.00
42591;BME280;28218;53.342;-6.216;2023-04-08T08:31:05;102178.31;;;11.61;100.00
42591;BME280;28218;53.342;-6.216;2023-04-08T08:33:33;102182.34;;;11.65;100.00
42591;BME280;28218;53.342;-6.216;2023-04-08T08:36:02;102183.19;;;11.56;100.00
42591;BME280;28218;53.342;-6.216;2023-04-08T08:38:32;102179.13;;;11.61;100.00
42591;BME280;28218;53.342;-6.216;2023-04-08T08:41:00;102180.25;;;11.68;100.00
42591;BME280;28218;53.342;-6.216;2023-04-08T08:43:31;102172.78;;;11.83;100.00
42591;BME280;28218;53.342;-6.216;2023-04-08T08:46:00;102168.88;;;11.97;100.00
42591;BME280;28218;53.342;-6.216;2023-04-08T08:48:30;102176.59;;;12.18;100.00
42591;BME280;28218;53.342;-6.216;2023-04-08T08:51:00;102170.84;;;12.32;100.00
42591;BME280;28218;53.342;-6.216;2023-04-08T08:53:29;102167.34;;;12.41;100.00
42591;BME280;28218;53.342;-6.216;2023-04-08T08:56:01;102164.94;;;12.58;100.00
42591;BME280;28218;53.342;-6.216;2023-04-08T08:58:34;102175.31;;;12.69;100.00
42591;BME280;28218;53.342;-6.216;2023-04-08T09:01:29;102172.06;;;12.75;100.00
42591;BME280;28218;53.342;-6.216;2023-04-08T09:04:09;102166.31;;;12.89;100.00
42591;BME280;28218;53.342;-6.216;2023-04-08T09:06:39;102178.50;;;13.00;100.00
42591;BME280;28218;53.342;-6.216;2023-04-08T09:09:07;102183.88;;;13.08;100.00
42591;BME280;28218;53.342;-6.216;2023-04-08T09:11:39;102176.84;;;13.17;100.00
42591;BME280;28218;53.342;-6.216;2023-04-08T09:14:19;102177.50;;;13.28;100.00
42591;BME280;28218;53.342;-6.216;2023-04-08T09:16:48;102178.09;;;13.40;100.00
42591;BME280;28218;53.342;-6.216;2023-04-08T09:19:17;102185.47;;;13.46;100.00
42591;BME280;28218;53.342;-6.216;2023-04-08T09:22:03;102187.50;;;13.52;100.00
42591;BME280;28218;53.342;-6.216;2023-04-08T09:24:33;102190.50;;;13.58;100.00
42591;BME280;28218;53.342;-6.216;2023-04-08T09:27:03;102197.38;;;13.68;100.00
42591;BME280;28218;53.342;-6.216;2023-04-08T09:29:33;102184.00;;;13.70;100.00
42591;BME280;28218;53.342;-6.216;2023-04-08T09:32:05;102198.66;;;13.82;100.00
42591;BME280;28218;53.342;-6.216;2023-04-08T09:34:34;102202.75;;;13.76;100.00
42591;BME280;28218;53.342;-6.216;2023-04-08T09:37:02;102202.19;;;13.65;100.00
42591;BME280;28218;53.342;-6.216;2023-04-08T09:39:30;102206.47;;;13.48;100.00
42591;BME280;28218;53.342;-6.216;2023-04-08T09:41:59;102207.00;;;13.51;100.00
42591;BME280;28218;53.342;-6.216;2023-04-08T09:44:28;102208.00;;;13.33;100.00
42591;BME280;28218;53.342;-6.216;2023-04-08T09:47:07;102214.31;;;13.22;100.00
42591;BME280;28218;53.342;-6.216;2023-04-08T09:49:37;102219.16;;;13.26;100.00
42591;BME280;28218;53.342;-6.216;2023-04-08T09:52:12;102218.50;;;13.15;100.00
42591;BME280;28218;53.342;-6.216;2023-04-08T09:54:46;102221.97;;;13.25;100.00
42591;BME280;28218;53.342;-6.216;2023-04-08T09:57:21;102219.41;;;13.33;100.00
42591;BME280;28218;53.342;-6.216;2023-04-08T09:59:55;102213.22;;;13.42;100.00
42591;BME280;28218;53.342;-6.216;2023-04-08T10:02:29;102211.94;;;13.46;100.00
42591;BME280;28218;53.342;-6.216;2023-04-08T10:05:03;102222.38;;;13.48;100.00
42591;BME280;28218;53.342;-6.216;2023-04-08T10:07:34;102225.69;;;13.50;100.00
42591;BME280;28218;53.342;-6.216;2023-04-08T10:10:03;102222.91;;;13.51;100.00
42591;BME280;28218;53.342;-6.216;2023-04-08T10:12:31;102220.25;;;13.51;100.00
42591;BME280;28218;53.342;-6.216;2023-04-08T10:15:22;102224.69;;;13.69;100.00
42591;BME280;28218;53.342;-6.216;2023-04-08T10:17:52;102222.47;;;13.74;100.00
42591;BME280;28218;53.342;-6.216;2023-04-08T10:20:42;102224.56;;;13.88;100.00
42591;BME280;28218;53.342;-6.216;2023-04-08T10:23:12;102227.50;;;14.03;100.00
42591;BME280;28218;53.342;-6.216;2023-04-08T10:25:42;102226.41;;;14.14;100.00
42591;BME280;28218;53.342;-6.216;2023-04-08T10:28:24;102234.25;;;14.23;100.00
42591;BME280;28218;53.342;-6.216;2023-04-08T10:30:54;102227.72;;;14.36;100.00
42591;BME280;28218;53.342;-6.216;2023-04-08T10:33:32;102230.22;;;14.37;100.00
42591;BME280;28218;53.342;-6.216;2023-04-08T10:36:08;102233.16;;;14.34;100.00
42591;BME280;28218;53.342;-6.216;2023-04-08T10:38:37;102234.38;;;14.40;100.00
42591;BME280;28218;53.342;-6.216;2023-04-08T10:41:05;102236.16;;;14.31;100.00
42591;BME280;28218;53.342;-6.216;2023-04-08T10:43:34;102231.94;;;14.46;100.00
42591;BME280;28218;53.342;-6.216;2023-04-08T10:46:03;102241.47;;;14.39;100.00
42591;BME280;28218;53.342;-6.216;2023-04-08T10:48:35;102233.22;;;14.42;100.00
42591;BME280;28218;53.342;-6.216;2023-04-08T10:51:04;102232.91;;;14.45;100.00
42591;BME280;28218;53.342;-6.216;2023-04-08T10:53:33;102234.38;;;14.40;100.00
42591;BME280;28218;53.342;-6.216;2023-04-08T10:56:03;102230.03;;;14.39;100.00
42591;BME280;28218;53.342;-6.216;2023-04-08T10:58:32;102235.44;;;14.29;100.00
42591;BME280;28218;53.342;-6.216;2023-04-08T11:01:04;102236.84;;;14.15;100.00
42591;BME280;28218;53.342;-6.216;2023-04-08T11:03:35;102224.75;;;14.13;100.00
42591;BME280;28218;53.342;-6.216;2023-04-08T11:06:04;102224.50;;;14.06;100.00
42591;BME280;28218;53.342;-6.216;2023-04-08T11:08:34;102215.97;;;14.12;100.00
42591;BME280;28218;53.342;-6.216;2023-04-08T11:11:04;102222.09;;;14.13;100.00
42591;BME280;28218;53.342;-6.216;2023-04-08T11:13:35;102214.06;;;14.04;100.00
42591;BME280;28218;53.342;-6.216;2023-04-08T11:16:03;102208.59;;;14.06;100.00
42591;BME280;28218;53.342;-6.216;2023-04-08T11:18:45;102208.38;;;14.17;100.00
42591;BME280;28218;53.342;-6.216;2023-04-08T11:21:14;102206.78;;;14.06;100.00
42591;BME280;28218;53.342;-6.216;2023-04-08T11:23:43;102205.72;;;14.17;100.00
42591;BME280;28218;53.342;-6.216;2023-04-08T11:26:12;102198.38;;;14.37;100.00
42591;BME280;28218;53.342;-6.216;2023-04-08T11:28:40;102208.34;;;14.43;100.00
42591;BME280;28218;53.342;-6.216;2023-04-08T11:31:09;102207.16;;;14.38;100.00
42591;BME280;28218;53.342;-6.216;2023-04-08T11:33:45;102205.00;;;14.07;100.00
42591;BME280;28218;53.342;-6.216;2023-04-08T11:36:16;102200.84;;;13.87;100.00
42591;BME280;28218;53.342;-6.216;2023-04-08T11:38:44;102203.66;;;13.49;100.00
42591;BME280;28218;53.342;-6.216;2023-04-08T11:41:14;102209.19;;;13.38;100.00
42591;BME280;28218;53.342;-6.216;2023-04-08T11:43:53;102198.97;;;13.25;100.00
42591;BME280;28218;53.342;-6.216;2023-04-08T11:46:22;102190.03;;;13.26;100.00
42591;BME280;28218;53.342;-6.216;2023-04-08T11:49:02;102183.25;;;13.42;100.00
42591;BME280;28218;53.342;-6.216;2023-04-08T11:51:32;102188.59;;;13.68;100.00
42591;BME280;28218;53.342;-6.216;2023-04-08T11:54:03;102175.06;;;13.89;100.00
42591;BME280;28218;53.342;-6.216;2023-04-08T11:56:43;102189.41;;;14.04;100.00
42591;BME280;28218;53.342;-6.216;2023-04-08T11:59:12;102187.00;;;14.19;100.00
42591;BME280;28218;53.342;-6.216;2023-04-08T12:01:41;102208.56;;;14.24;100.00
42591;BME280;28218;53.342;-6.216;2023-04-08T12:04:10;102182.34;;;14.13;100.00
42591;BME280;28218;53.342;-6.216;2023-04-08T12:06:39;102181.69;;;14.19;100.00
42591;BME280;28218;53.342;-6.216;2023-04-08T12:09:09;102187.47;;;14.40;100.00
42591;BME280;28218;53.342;-6.216;2023-04-08T12:11:37;102197.66;;;14.27;100.00
42591;BME280;28218;53.342;-6.216;2023-04-08T12:14:05;102189.09;;;14.07;100.00
42591;BME280;28218;53.342;-6.216;2023-04-08T12:16:33;102185.91;;;14.03;100.00
42591;BME280;28218;53.342;-6.216;2023-04-08T12:19:02;102178.53;;;13.89;100.00
42591;BME280;28218;53.342;-6.216;2023-04-08T12:21:31;102189.22;;;13.79;100.00
42591;BME280;28218;53.342;-6.216;2023-04-08T12:24:00;102178.75;;;13.78;100.00
42591;BME280;28218;53.342;-6.216;2023-04-08T12:26:28;102184.84;;;13.96;100.00
42591;BME280;28218;53.342;-6.216;2023-04-08T12:28:56;102188.31;;;14.15;100.00
42591;BME280;28218;53.342;-6.216;2023-04-08T12:31:24;102185.44;;;14.34;100.00
42591;BME280;28218;53.342;-6.216;2023-04-08T12:33:54;102190.00;;;14.24;100.00
42591;BME280;28218;53.342;-6.216;2023-04-08T12:36:22;102191.94;;;14.14;100.00
42591;BME280;28218;53.342;-6.216;2023-04-08T12:38:52;102197.81;;;13.99;100.00
42591;BME280;28218;53.342;-6.216;2023-04-08T12:41:20;102195.22;;;14.07;100.00
42591;BME280;28218;53.342;-6.216;2023-04-08T12:43:48;102209.88;;;14.20;100.00
42591;BME280;28218;53.342;-6.216;2023-04-08T12:46:16;102200.09;;;14.20;100.00
42591;BME280;28218;53.342;-6.216;2023-04-08T12:48:45;102201.72;;;14.13;100.00